sensor_id;sensor_type;location;lat;lon;timestamp;P1;durP1;ratioP1;P2;durP2;ratioP2
19260;SDS011;9764;48.114;11.670;2022-08-19T00:01:44;7.82;;;7.03;;
19260;SDS011;9764;48.114;11.670;2022-08-19T00:04:19;7.70;;;7.07;;
19260;SDS011;9764;48.114;11.670;2022-08-19T00:06:50;9.07;;;7.47;;
19260;SDS011;9764;48.114;11.670;2022-08-19T00:09:19;8.02;;;7.22;;
19260;SDS011;9764;48.114;11.670;2022-08-19T00:11:48;8.55;;;7.75;;
19260;SDS011;9764;48.114;11.670;2022-08-19T00:14:17;8.35;;;7.65;;
19260;SDS011;9764;48.114;11.670;2022-08-19T00:16:47;8.40;;;7.60;;
19260;SDS011;9764;48.114;11.670;2022-08-19T00:19:17;7.95;;;7.18;;
19260;SDS011;9764;48.114;11.670;2022-08-19T00:21:46;7.85;;;7.10;;
19260;SDS011;9764;48.114;11.670;2022-08-19T00:24:16;8.25;;;7.53;;
19260;SDS011;9764;48.114;11.670;2022-08-19T00:26:45;8.23;;;7.40;;
19260;SDS011;9764;48.114;11.670;2022-08-19T00:29:15;8.27;;;7.57;;
19260;SDS011;9764;48.114;11.670;2022-08-19T00:31:44;7.88;;;7.05;;
19260;SDS011;9764;48.114;11.670;2022-08-19T00:34:16;8.05;;;7.20;;
19260;SDS011;9764;48.114;11.670;2022-08-19T00:36:44;8.73;;;7.30;;
19260;SDS011;9764;48.114;11.670;2022-08-19T00:39:14;8.15;;;7.45;;
19260;SDS011;9764;48.114;11.670;2022-08-19T00:41:45;8.00;;;7.30;;
19260;SDS011;9764;48.114;11.670;2022-08-19T00:44:15;8.75;;;7.95;;
19260;SDS011;9764;48.114;11.670;2022-08-19T00:46:49;8.10;;;7.40;;
19260;SDS011;9764;48.114;11.670;2022-08-19T00:49:25;9.98;;;7.57;;
19260;SDS011;9764;48.114;11.670;2022-08-19T00:51:57;7.53;;;6.82;;
19260;SDS011;9764;48.114;11.670;2022-08-19T00:54:27;7.70;;;7.07;;
19260;SDS011;9764;48.114;11.670;2022-08-19T00:56:59;7.57;;;6.88;;
19260;SDS011;9764;48.114;11.670;2022-08-19T00:59:28;7.75;;;7.15;;
19260;SDS011;9764;48.114;11.670;2022-08-19T01:02:17;7.88;;;7.28;;
19260;SDS011;9764;48.114;11.670;2022-08-19T01:04:46;8.13;;;7.40;;
19260;SDS011;9764;48.114;11.670;2022-08-19T01:07:15;8.57;;;7.22;;
19260;SDS011;9764;48.114;11.670;2022-08-19T01:09:45;7.50;;;6.90;;
19260;SDS011;9764;48.114;11.670;2022-08-19T01:12:15;7.72;;;7.03;;
19260;SDS011;9764;48.114;11.670;2022-08-19T01:14:45;8.45;;;7.63;;
19260;SDS011;9764;48.114;11.670;2022-08-19T01:17:14;7.65;;;7.05;;
19260;SDS011;9764;48.114;11.670;2022-08-19T01:19:44;8.15;;;7.45;;
19260;SDS011;9764;48.114;11.670;2022-08-19T01:22:15;7.95;;;7.25;;
19260;SDS011;9764;48.114;11.670;2022-08-19T01:24:55;8.35;;;7.60;;
19260;SDS011;9764;48.114;11.670;2022-08-19T01:27:24;8.40;;;7.30;;
19260;SDS011;9764;48.114;11.670;2022-08-19T01:30:09;8.35;;;7.53;;
19260;SDS011;9764;48.114;11.670;2022-08-19T01:32:37;8.25;;;7.45;;
19260;SDS011;9764;48.114;11.670;2022-08-19T01:35:06;8.55;;;7.60;;
19260;SDS011;9764;48.114;11.670;2022-08-19T01:37:41;8.07;;;7.38;;
19260;SDS011;9764;48.114;11.670;2022-08-19T01:40:11;7.95;;;7.30;;
19260;SDS011;9764;48.114;11.670;2022-08-19T01:42:40;8.25;;;7.55;;
19260;SDS011;9764;48.114;11.670;2022-08-19T01:45:09;7.95;;;7.15;;
19260;SDS011;9764;48.114;11.670;2022-08-19T01:47:38;8.13;;;7.00;;
19260;SDS011;9764;48.114;11.670;2022-08-19T01:50:07;7.35;;;6.75;;
19260;SDS011;9764;48.114;11.670;2022-08-19T01:52:36;8.05;;;7.25;;
19260;SDS011;9764;48.114;11.670;2022-08-19T01:55:06;7.40;;;6.72;;
19260;SDS011;9764;48.114;11.670;2022-08-19T01:57:37;8.60;;;6.63;;
19260;SDS011;9764;48.114;11.670;2022-08-19T02:00:08;8.00;;;7.30;;
19260;SDS011;9764;48.114;11.670;2022-08-19T02:02:37;8.82;;;7.43;;
19260;SDS011;9764;48.114;11.670;2022-08-19T02:05:10;7.40;;;6.75;;
19260;SDS011;9764;48.114;11.670;2022-08-19T02:07:39;7.60;;;6.90;;
19260;SDS011;9764;48.114;11.670;2022-08-19T02:10:10;8.07;;;7.38;;
19260;SDS011;9764;48.114;11.670;2022-08-19T02:12:43;7.70;;;7.03;;
19260;SDS011;9764;48.114;11.670;2022-08-19T02:15:13;9.18;;;7.00;;
19260;SDS011;9764;48.114;11.670;2022-08-19T02:17:41;8.45;;;7.70;;
19260;SDS011;9764;48.114;11.670;2022-08-19T02:20:10;9.00;;;7.85;;
19260;SDS011;9764;48.114;11.670;2022-08-19T02:22:39;8.73;;;7.93;;
19260;SDS011;9764;48.114;11.670;2022-08-19T02:25:09;8.38;;;7.68;;
19260;SDS011;9764;48.114;11.670;2022-08-19T02:27:38;7.32;;;6.68;;
19260;SDS011;9764;48.114;11.670;2022-08-19T02:30:10;8.50;;;7.80;;
19260;SDS011;9764;48.114;11.670;2022-08-19T02:32:39;9.50;;;8.45;;
19260;SDS011;9764;48.114;11.670;2022-08-19T02:35:12;8.48;;;7.63;;
19260;SDS011;9764;48.114;11.670;2022-08-19T02:37:40;9.65;;;8.55;;
19260;SDS011;9764;48.114;11.670;2022-08-19T02:40:27;9.23;;;8.25;;
19260;SDS011;9764;48.114;11.670;2022-08-19T02:42:55;9.50;;;8.60;;
19260;SDS011;9764;48.114;11.670;2022-08-19T02:45:25;9.20;;;8.23;;
19260;SDS011;9764;48.114;11.670;2022-08-19T02:47:54;9.10;;;8.20;;
19260;SDS011;9764;48.114;11.670;2022-08-19T02:50:23;8.55;;;7.75;;
19260;SDS011;9764;48.114;11.670;2022-08-19T02:52:52;9.50;;;8.63;;
19260;SDS011;9764;48.114;11.670;2022-08-19T02:55:20;8.77;;;7.97;;
19260;SDS011;9764;48.114;11.670;2022-08-19T02:57:49;9.00;;;8.10;;
19260;SDS011;9764;48.114;11.670;2022-08-19T03:00:17;9.88;;;8.95;;
19260;SDS011;9764;48.114;11.670;2022-08-19T03:02:48;9.48;;;8.57;;
19260;SDS011;9764;48.114;11.670;2022-08-19T03:05:17;9.70;;;8.80;;
19260;SDS011;9764;48.114;11.670;2022-08-19T03:08:05;9.40;;;8.57;;
19260;SDS011;9764;48.114;11.670;2022-08-19T03:10:39;8.48;;;7.68;;
19260;SDS011;9764;48.114;11.670;2022-08-19T03:13:08;9.50;;;8.50;;
19260;SDS011;9764;48.114;11.670;2022-08-19T03:15:38;9.90;;;9.00;;
19260;SDS011;9764;48.114;11.670;2022-08-19T03:18:08;9.55;;;8.63;;
19260;SDS011;9764;48.114;11.670;2022-08-19T03:20:42;9.70;;;8.57;;
19260;SDS011;9764;48.114;11.670;2022-08-19T03:23:10;9.52;;;8.38;;
19260;SDS011;9764;48.114;11.670;2022-08-19T03:25:40;9.20;;;8.38;;
19260;SDS011;9764;48.114;11.670;2022-08-19T03:28:09;9.10;;;8.30;;
19260;SDS011;9764;48.114;11.670;2022-08-19T03:30:38;10.20;;;8.57;;
19260;SDS011;9764;48.114;11.670;2022-08-19T03:33:10;9.20;;;8.43;;
19260;SDS011;9764;48.114;11.670;2022-08-19T03:35:59;9.38;;;8.48;;
19260;SDS011;9764;48.114;11.670;2022-08-19T03:38:28;9.25;;;8.38;;
19260;SDS011;9764;48.114;11.670;2022-08-19T03:40:56;12.52;;;9.27;;
19260;SDS011;9764;48.114;11.670;2022-08-19T03:43:25;9.38;;;8.48;;
19260;SDS011;9764;48.114;11.670;2022-08-19T03:45:59;10.55;;;8.82;;
19260;SDS011;9764;48.114;11.670;2022-08-19T03:48:30;9.88;;;8.88;;
19260;SDS011;9764;48.114;11.670;2022-08-19T03:50:58;10.52;;;8.10;;
19260;SDS011;9764;48.114;11.670;2022-08-19T03:53:27;10.57;;;9.48;;
19260;SDS011;9764;48.114;11.670;2022-08-19T03:55:56;9.52;;;8.63;;
19260;SDS011;9764;48.114;11.670;2022-08-19T03:58:26;9.63;;;8.75;;
19260;SDS011;9764;48.114;11.670;2022-08-19T04:00:55;9.45;;;8.50;;
19260;SDS011;9764;48.114;11.670;2022-08-19T04:03:24;9.23;;;8.32;;
19260;SDS011;9764;48.114;11.670;2022-08-19T04:05:55;9.93;;;8.05;;
19260;SDS011;9764;48.114;11.670;2022-08-19T04:08:23;10.20;;;9.02;;
19260;SDS011;9764;48.114;11.670;2022-08-19T04:10:52;9.60;;;8.70;;
19260;SDS011;9764;48.114;11.670;2022-08-19T04:13:21;9.55;;;8.65;;
19260;SDS011;9764;48.114;11.670;2022-08-19T04:15:49;9.00;;;8.20;;
19260;SDS011;9764;48.114;11.670;2022-08-19T04:18:18;9.95;;;8.95;;
19260;SDS011;9764;48.114;11.670;2022-08-19T04:20:46;11.77;;;9.23;;
19260;SDS011;9764;48.114;11.670;2022-08-19T04:23:17;9.45;;;8.55;;
19260;SDS011;9764;48.114;11.670;2022-08-19T04:25:46;9.52;;;8.63;;
19260;SDS011;9764;48.114;11.670;2022-08-19T04:28:15;9.55;;;8.65;;
19260;SDS011;9764;48.114;11.670;2022-08-19T04:30:45;9.10;;;8.20;;
19260;SDS011;9764;48.114;11.670;2022-08-19T04:33:16;15.27;;;8.80;;
19260;SDS011;9764;48.114;11.670;2022-08-19T04:35:52;8.80;;;8.00;;
19260;SDS011;9764;48.114;11.670;2022-08-19T04:38:22;9.88;;;8.45;;
19260;SDS011;9764;48.114;11.670;2022-08-19T04:40:51;9.68;;;8.77;;
19260;SDS011;9764;48.114;11.670;2022-08-19T04:43:37;9.70;;;8.85;;
19260;SDS011;9764;48.114;11.670;2022-08-19T04:46:06;9.10;;;8.30;;
19260;SDS011;9764;48.114;11.670;2022-08-19T04:48:35;9.65;;;8.75;;
19260;SDS011;9764;48.114;11.670;2022-08-19T04:51:14;10.18;;;8.45;;
19260;SDS011;9764;48.114;11.670;2022-08-19T04:53:45;10.30;;;9.25;;
19260;SDS011;9764;48.114;11.670;2022-08-19T04:56:14;8.48;;;7.78;;
19260;SDS011;9764;48.114;11.670;2022-08-19T04:58:44;10.02;;;9.02;;
19260;SDS011;9764;48.114;11.670;2022-08-19T05:01:13;9.88;;;8.98;;
19260;SDS011;9764;48.114;11.670;2022-08-19T05:03:42;9.63;;;8.63;;
19260;SDS011;9764;48.114;11.670;2022-08-19T05:06:11;10.40;;;9.25;;
19260;SDS011;9764;48.114;11.670;2022-08-19T05:08:40;9.43;;;8.63;;
19260;SDS011;9764;48.114;11.670;2022-08-19T05:11:11;9.77;;;8.80;;
19260;SDS011;9764;48.114;11.670;2022-08-19T05:13:41;9.10;;;8.30;;
19260;SDS011;9764;48.114;11.670;2022-08-19T05:16:10;9.35;;;8.40;;
19260;SDS011;9764;48.114;11.670;2022-08-19T05:18:39;10.35;;;9.15;;
19260;SDS011;9764;48.114;11.670;2022-08-19T05:21:26;9.35;;;8.43;;
19260;SDS011;9764;48.114;11.670;2022-08-19T05:24:12;9.85;;;8.95;;
19260;SDS011;9764;48.114;11.670;2022-08-19T05:26:43;9.43;;;8.55;;
19260;SDS011;9764;48.114;11.670;2022-08-19T05:29:13;10.48;;;8.57;;
19260;SDS011;9764;48.114;11.670;2022-08-19T05:31:42;10.18;;;9.18;;
19260;SDS011;9764;48.114;11.670;2022-08-19T05:34:10;10.43;;;9.43;;
19260;SDS011;9764;48.114;11.670;2022-08-19T05:36:46;10.60;;;9.45;;
19260;SDS011;9764;48.114;11.670;2022-08-19T05:39:15;10.30;;;9.30;;
19260;SDS011;9764;48.114;11.670;2022-08-19T05:41:46;10.23;;;9.23;;
19260;SDS011;9764;48.114;11.670;2022-08-19T05:44:16;10.88;;;9.77;;
19260;SDS011;9764;48.114;11.670;2022-08-19T05:46:46;12.30;;;9.93;;
19260;SDS011;9764;48.114;11.670;2022-08-19T05:49:15;11.05;;;9.85;;
19260;SDS011;9764;48.114;11.670;2022-08-19T05:51:44;11.30;;;10.05;;
19260;SDS011;9764;48.114;11.670;2022-08-19T05:54:12;11.18;;;10.02;;
19260;SDS011;9764;48.114;11.670;2022-08-19T05:56:42;11.57;;;10.50;;
19260;SDS011;9764;48.114;11.670;2022-08-19T05:59:15;11.55;;;10.27;;
19260;SDS011;9764;48.114;11.670;2022-08-19T06:01:45;10.80;;;9.57;;
19260;SDS011;9764;48.114;11.670;2022-08-19T06:04:17;11.10;;;10.07;;
19260;SDS011;9764;48.114;11.670;2022-08-19T06:06:49;11.27;;;10.07;;
19260;SDS011;9764;48.114;11.670;2022-08-19T06:09:19;11.68;;;10.48;;
19260;SDS011;9764;48.114;11.670;2022-08-19T06:11:48;12.65;;;10.70;;
19260;SDS011;9764;48.114;11.670;2022-08-19T06:14:24;11.95;;;10.75;;
19260;SDS011;9764;48.114;11.670;2022-08-19T06:16:53;11.70;;;10.60;;
19260;SDS011;9764;48.114;11.670;2022-08-19T06:19:22;11.45;;;10.27;;
19260;SDS011;9764;48.114;11.670;2022-08-19T06:21:51;14.10;;;11.18;;
19260;SDS011;9764;48.114;11.670;2022-08-19T06:24:22;11.80;;;10.57;;
19260;SDS011;9764;48.114;11.670;2022-08-19T06:26:52;12.02;;;10.85;;
19260;SDS011;9764;48.114;11.670;2022-08-19T06:29:28;12.32;;;11.05;;
19260;SDS011;9764;48.114;11.670;2022-08-19T06:31:58;11.98;;;10.75;;
19260;SDS011;9764;48.114;11.670;2022-08-19T06:34:28;12.20;;;11.00;;
19260;SDS011;9764;48.114;11.670;2022-08-19T06:36:58;11.93;;;10.82;;
19260;SDS011;9764;48.114;11.670;2022-08-19T06:39:28;11.48;;;10.38;;
19260;SDS011;9764;48.114;11.670;2022-08-19T06:41:58;12.18;;;10.98;;
19260;SDS011;9764;48.114;11.670;2022-08-19T06:44:31;11.80;;;10.57;;
19260;SDS011;9764;48.114;11.670;2022-08-19T06:47:09;12.52;;;11.25;;
19260;SDS011;9764;48.114;11.670;2022-08-19T06:49:41;12.38;;;11.18;;
19260;SDS011;9764;48.114;11.670;2022-08-19T06:52:10;12.10;;;11.00;;
19260;SDS011;9764;48.114;11.670;2022-08-19T06:54:40;12.30;;;11.18;;
19260;SDS011;9764;48.114;11.670;2022-08-19T06:57:22;11.77;;;10.68;;
19260;SDS011;9764;48.114;11.670;2022-08-19T06:59:52;12.43;;;11.05;;
19260;SDS011;9764;48.114;11.670;2022-08-19T07:02:21;12.50;;;11.23;;
19260;SDS011;9764;48.114;11.670;2022-08-19T07:04:52;13.50;;;11.25;;
19260;SDS011;9764;48.114;11.670;2022-08-19T07:07:24;12.32;;;11.23;;
19260;SDS011;9764;48.114;11.670;2022-08-19T07:09:53;11.57;;;10.48;;
19260;SDS011;9764;48.114;11.670;2022-08-19T07:12:27;13.18;;;11.48;;
19260;SDS011;9764;48.114;11.670;2022-08-19T07:14:59;12.40;;;11.30;;
19260;SDS011;9764;48.114;11.670;2022-08-19T07:17:27;12.35;;;11.20;;
19260;SDS011;9764;48.114;11.670;2022-08-19T07:19:56;12.25;;;11.05;;
19260;SDS011;9764;48.114;11.670;2022-08-19T07:22:35;11.73;;;10.63;;
19260;SDS011;9764;48.114;11.670;2022-08-19T07:25:04;13.13;;;11.77;;
19260;SDS011;9764;48.114;11.670;2022-08-19T07:27:33;12.70;;;11.40;;
19260;SDS011;9764;48.114;11.670;2022-08-19T07:30:07;12.50;;;11.30;;
19260;SDS011;9764;48.114;11.670;2022-08-19T07:32:38;12.68;;;11.48;;
19260;SDS011;9764;48.114;11.670;2022-08-19T07:35:07;12.73;;;11.52;;
19260;SDS011;9764;48.114;11.670;2022-08-19T07:37:36;12.05;;;10.90;;
19260;SDS011;9764;48.114;11.670;2022-08-19T07:40:10;11.98;;;10.88;;
19260;SDS011;9764;48.114;11.670;2022-08-19T07:42:39;13.15;;;11.85;;
19260;SDS011;9764;48.114;11.670;2022-08-19T07:45:10;12.68;;;11.38;;
19260;SDS011;9764;48.114;11.670;2022-08-19T07:47:38;13.38;;;10.98;;
19260;SDS011;9764;48.114;11.670;2022-08-19T07:50:24;12.63;;;11.32;;
19260;SDS011;9764;48.114;11.670;2022-08-19T07:52:52;12.32;;;11.02;;
19260;SDS011;9764;48.114;11.670;2022-08-19T07:55:22;12.35;;;11.15;;
19260;SDS011;9764;48.114;11.670;2022-08-19T07:58:08;12.20;;;11.07;;
19260;SDS011;9764;48.114;11.670;2022-08-19T08:00:38;12.23;;;11.02;;
19260;SDS011;9764;48.114;11.670;2022-08-19T08:03:07;11.48;;;10.45;;
19260;SDS011;9764;48.114;11.670;2022-08-19T08:05:36;12.93;;;11.57;;
19260;SDS011;9764;48.114;11.670;2022-08-19T08:08:22;11.73;;;10.63;;
19260;SDS011;9764;48.114;11.670;2022-08-19T08:11:13;11.73;;;10.52;;
19260;SDS011;9764;48.114;11.670;2022-08-19T08:13:45;12.70;;;11.50;;
19260;SDS011;9764;48.114;11.670;2022-08-19T08:16:28;12.10;;;11.00;;
19260;SDS011;9764;48.114;11.670;2022-08-19T08:18:57;13.05;;;11.82;;
19260;SDS011;9764;48.114;11.670;2022-08-19T08:21:26;12.55;;;11.40;;
19260;SDS011;9764;48.114;11.670;2022-08-19T08:23:55;12.48;;;11.27;;
19260;SDS011;9764;48.114;11.670;2022-08-19T08:26:29;12.10;;;11.00;;
19260;SDS011;9764;48.114;11.670;2022-08-19T08:29:00;12.88;;;11.60;;
19260;SDS011;9764;48.114;11.670;2022-08-19T08:31:39;12.68;;;11.50;;
19260;SDS011;9764;48.114;11.670;2022-08-19T08:34:08;12.43;;;11.23;;
19260;SDS011;9764;48.114;11.670;2022-08-19T08:36:37;13.13;;;11.77;;
19260;SDS011;9764;48.114;11.670;2022-08-19T08:39:08;12.68;;;11.48;;
19260;SDS011;9764;48.114;11.670;2022-08-19T08:41:37;12.07;;;10.98;;
19260;SDS011;9764;48.114;11.670;2022-08-19T08:44:11;13.07;;;11.82;;
19260;SDS011;9764;48.114;11.670;2022-08-19T08:46:48;12.35;;;11.18;;
19260;SDS011;9764;48.114;11.670;2022-08-19T08:49:21;12.80;;;11.57;;
19260;SDS011;9764;48.114;11.670;2022-08-19T08:51:52;13.60;;;12.23;;
19260;SDS011;9764;48.114;11.670;2022-08-19T08:54:27;13.45;;;12.05;;
19260;SDS011;9764;48.114;11.670;2022-08-19T08:57:00;13.05;;;11.77;;
19260;SDS011;9764;48.114;11.670;2022-08-19T08:59:31;13.00;;;11.73;;
19260;SDS011;9764;48.114;11.670;2022-08-19T09:02:03;13.55;;;11.82;;
19260;SDS011;9764;48.114;11.670;2022-08-19T09:04:31;12.93;;;11.68;;
19260;SDS011;9764;48.114;11.670;2022-08-19T09:07:09;13.07;;;11.70;;
19260;SDS011;9764;48.114;11.670;2022-08-19T09:09:52;12.43;;;11.25;;
19260;SDS011;9764;48.114;11.670;2022-08-19T09:12:25;14.02;;;12.57;;
19260;SDS011;9764;48.114;11.670;2022-08-19T09:14:56;12.50;;;11.27;;
19260;SDS011;9764;48.114;11.670;2022-08-19T09:17:28;13.50;;;12.00;;
19260;SDS011;9764;48.114;11.670;2022-08-19T09:20:03;13.77;;;12.38;;
19260;SDS011;9764;48.114;11.670;2022-08-19T09:22:35;13.43;;;12.27;;
19260;SDS011;9764;48.114;11.670;2022-08-19T09:25:04;13.77;;;12.38;;
19260;SDS011;9764;48.114;11.670;2022-08-19T09:27:33;13.02;;;11.73;;
19260;SDS011;9764;48.114;11.670;2022-08-19T09:30:10;12.43;;;11.23;;
19260;SDS011;9764;48.114;11.670;2022-08-19T09:32:42;13.23;;;11.65;;
19260;SDS011;9764;48.114;11.670;2022-08-19T09:35:12;13.48;;;12.07;;
19260;SDS011;9764;48.114;11.670;2022-08-19T09:37:41;13.55;;;12.20;;
19260;SDS011;9764;48.114;11.670;2022-08-19T09:40:11;13.48;;;12.27;;
19260;SDS011;9764;48.114;11.670;2022-08-19T09:42:41;14.00;;;12.63;;
19260;SDS011;9764;48.114;11.670;2022-08-19T09:45:19;12.95;;;11.65;;
19260;SDS011;9764;48.114;11.670;2022-08-19T09:47:50;13.48;;;12.10;;
19260;SDS011;9764;48.114;11.670;2022-08-19T09:50:21;12.48;;;11.38;;
19260;SDS011;9764;48.114;11.670;2022-08-19T09:52:50;13.00;;;11.80;;
19260;SDS011;9764;48.114;11.670;2022-08-19T09:55:24;12.75;;;11.50;;
19260;SDS011;9764;48.114;11.670;2022-08-19T09:57:58;13.65;;;12.25;;
19260;SDS011;9764;48.114;11.670;2022-08-19T10:00:27;13.52;;;12.18;;
19260;SDS011;9764;48.114;11.670;2022-08-19T10:02:58;14.05;;;12.65;;
19260;SDS011;9764;48.114;11.670;2022-08-19T10:05:29;12.77;;;11.52;;
19260;SDS011;9764;48.114;11.670;2022-08-19T10:08:22;13.20;;;11.90;;
19260;SDS011;9764;48.114;11.670;2022-08-19T10:10:52;12.93;;;11.68;;
19260;SDS011;9764;48.114;11.670;2022-08-19T10:13:22;12.93;;;11.73;;
19260;SDS011;9764;48.114;11.670;2022-08-19T10:15:52;13.90;;;12.55;;
19260;SDS011;9764;48.114;11.670;2022-08-19T10:18:24;13.48;;;12.07;;
19260;SDS011;9764;48.114;11.670;2022-08-19T10:21:01;12.30;;;11.10;;
19260;SDS011;9764;48.114;11.670;2022-08-19T10:23:31;13.07;;;11.77;;
19260;SDS011;9764;48.114;11.670;2022-08-19T10:26:01;13.20;;;11.90;;
19260;SDS011;9764;48.114;11.670;2022-08-19T10:28:29;12.45;;;11.25;;
19260;SDS011;9764;48.114;11.670;2022-08-19T10:31:01;12.70;;;11.48;;
19260;SDS011;9764;48.114;11.670;2022-08-19T10:33:34;13.30;;;11.90;;
19260;SDS011;9764;48.114;11.670;2022-08-19T10:36:19;12.80;;;11.50;;
19260;SDS011;9764;48.114;11.670;2022-08-19T10:38:52;12.63;;;11.43;;
19260;SDS011;9764;48.114;11.670;2022-08-19T10:41:24;12.13;;;10.93;;
19260;SDS011;9764;48.114;11.670;2022-08-19T10:43:54;12.27;;;11.00;;
19260;SDS011;9764;48.114;11.670;2022-08-19T10:46:29;12.75;;;11.43;;
19260;SDS011;9764;48.114;11.670;2022-08-19T10:49:00;12.55;;;11.35;;
19260;SDS011;9764;48.114;11.670;2022-08-19T10:51:29;12.35;;;11.05;;
19260;SDS011;9764;48.114;11.670;2022-08-19T10:54:16;13.05;;;11.75;;
19260;SDS011;9764;48.114;11.670;2022-08-19T10:56:58;11.73;;;10.50;;
19260;SDS011;9764;48.114;11.670;2022-08-19T10:59:27;12.88;;;11.57;;
19260;SDS011;9764;48.114;11.670;2022-08-19T11:02:01;11.75;;;10.50;;
19260;SDS011;9764;48.114;11.670;2022-08-19T11:04:32;12.15;;;10.88;;
19260;SDS011;9764;48.114;11.670;2022-08-19T11:07:01;12.45;;;11.25;;
19260;SDS011;9764;48.114;11.670;2022-08-19T11:09:31;12.27;;;11.07;;
19260;SDS011;9764;48.114;11.670;2022-08-19T11:12:00;11.27;;;10.27;;
19260;SDS011;9764;48.114;11.670;2022-08-19T11:14:30;12.45;;;11.25;;
19260;SDS011;9764;48.114;11.670;2022-08-19T11:17:00;11.25;;;9.82;;
19260;SDS011;9764;48.114;11.670;2022-08-19T11:19:28;11.07;;;9.98;;
19260;SDS011;9764;48.114;11.670;2022-08-19T11:21:59;10.43;;;9.45;;
19260;SDS011;9764;48.114;11.670;2022-08-19T11:24:29;10.95;;;9.95;;
19260;SDS011;9764;48.114;11.670;2022-08-19T11:27:03;11.05;;;9.90;;
19260;SDS011;9764;48.114;11.670;2022-08-19T11:29:32;11.95;;;10.68;;
19260;SDS011;9764;48.114;11.670;2022-08-19T11:32:02;11.25;;;10.25;;
19260;SDS011;9764;48.114;11.670;2022-08-19T11:34:32;10.48;;;9.48;;
19260;SDS011;9764;48.114;11.670;2022-08-19T11:37:03;10.73;;;9.65;;
19260;SDS011;9764;48.114;11.670;2022-08-19T11:39:33;10.80;;;9.75;;
19260;SDS011;9764;48.114;11.670;2022-08-19T11:42:02;11.18;;;10.18;;
19260;SDS011;9764;48.114;11.670;2022-08-19T11:44:52;10.40;;;9.30;;
19260;SDS011;9764;48.114;11.670;2022-08-19T11:47:21;10.43;;;9.32;;
19260;SDS011;9764;48.114;11.670;2022-08-19T11:49:50;11.98;;;10.15;;
19260;SDS011;9764;48.114;11.670;2022-08-19T11:52:21;10.75;;;9.73;;
19260;SDS011;9764;48.114;11.670;2022-08-19T11:54:50;9.93;;;8.98;;
19260;SDS011;9764;48.114;11.670;2022-08-19T11:57:18;11.63;;;9.52;;
19260;SDS011;9764;48.114;11.670;2022-08-19T11:59:48;10.45;;;9.38;;
19260;SDS011;9764;48.114;11.670;2022-08-19T12:02:17;11.07;;;9.98;;
19260;SDS011;9764;48.114;11.670;2022-08-19T12:04:45;10.05;;;9.00;;
19260;SDS011;9764;48.114;11.670;2022-08-19T12:07:14;10.20;;;9.15;;
19260;SDS011;9764;48.114;11.670;2022-08-19T12:09:44;10.23;;;9.15;;
19260;SDS011;9764;48.114;11.670;2022-08-19T12:12:14;10.88;;;9.80;;
19260;SDS011;9764;48.114;11.670;2022-08-19T12:14:43;10.57;;;9.55;;
19260;SDS011;9764;48.114;11.670;2022-08-19T12:17:13;11.65;;;8.75;;
19260;SDS011;9764;48.114;11.670;2022-08-19T12:19:41;9.82;;;8.93;;
19260;SDS011;9764;48.114;11.670;2022-08-19T12:22:10;9.95;;;9.05;;
19260;SDS011;9764;48.114;11.670;2022-08-19T12:24:39;9.73;;;8.80;;
19260;SDS011;9764;48.114;11.670;2022-08-19T12:27:09;9.57;;;8.48;;
19260;SDS011;9764;48.114;11.670;2022-08-19T12:29:45;10.43;;;9.32;;
19260;SDS011;9764;48.114;11.670;2022-08-19T12:32:15;10.35;;;9.35;;
19260;SDS011;9764;48.114;11.670;2022-08-19T12:34:43;9.55;;;8.75;;
19260;SDS011;9764;48.114;11.670;2022-08-19T12:37:13;9.32;;;8.45;;
19260;SDS011;9764;48.114;11.670;2022-08-19T12:39:43;8.88;;;8.10;;
19260;SDS011;9764;48.114;11.670;2022-08-19T12:42:14;9.68;;;8.75;;
19260;SDS011;9764;48.114;11.670;2022-08-19T12:44:44;9.82;;;8.80;;
19260;SDS011;9764;48.114;11.670;2022-08-19T12:47:13;9.45;;;8.55;;
19260;SDS011;9764;48.114;11.670;2022-08-19T12:49:41;9.48;;;8.57;;
19260;SDS011;9764;48.114;11.670;2022-08-19T12:52:21;10.13;;;8.85;;
19260;SDS011;9764;48.114;11.670;2022-08-19T12:54:50;9.95;;;9.10;;
19260;SDS011;9764;48.114;11.670;2022-08-19T12:57:22;9.70;;;8.75;;
19260;SDS011;9764;48.114;11.670;2022-08-19T12:59:58;9.57;;;8.68;;
19260;SDS011;9764;48.114;11.670;2022-08-19T13:02:30;9.60;;;8.60;;
19260;SDS011;9764;48.114;11.670;2022-08-19T13:05:06;9.18;;;8.20;;
19260;SDS011;9764;48.114;11.670;2022-08-19T13:07:36;8.45;;;7.63;;
19260;SDS011;9764;48.114;11.670;2022-08-19T13:10:06;8.60;;;7.80;;
19260;SDS011;9764;48.114;11.670;2022-08-19T13:12:37;9.32;;;8.43;;
19260;SDS011;9764;48.114;11.670;2022-08-19T13:15:07;9.30;;;8.50;;
19260;SDS011;9764;48.114;11.670;2022-08-19T13:17:37;8.60;;;7.80;;
19260;SDS011;9764;48.114;11.670;2022-08-19T13:20:06;8.70;;;7.90;;
19260;SDS011;9764;48.114;11.670;2022-08-19T13:22:35;8.85;;;8.00;;
19260;SDS011;9764;48.114;11.670;2022-08-19T13:25:04;9.85;;;7.95;;
19260;SDS011;9764;48.114;11.670;2022-08-19T13:27:33;8.23;;;7.43;;
19260;SDS011;9764;48.114;11.670;2022-08-19T13:30:04;8.65;;;7.85;;
19260;SDS011;9764;48.114;11.670;2022-08-19T13:32:50;8.93;;;8.02;;
19260;SDS011;9764;48.114;11.670;2022-08-19T13:35:36;8.63;;;7.82;;
19260;SDS011;9764;48.114;11.670;2022-08-19T13:38:05;9.07;;;8.18;;
19260;SDS011;9764;48.114;11.670;2022-08-19T13:40:38;7.95;;;7.25;;
19260;SDS011;9764;48.114;11.670;2022-08-19T13:43:07;8.20;;;7.40;;
19260;SDS011;9764;48.114;11.670;2022-08-19T13:45:49;9.05;;;8.20;;
19260;SDS011;9764;48.114;11.670;2022-08-19T13:48:23;7.75;;;7.10;;
19260;SDS011;9764;48.114;11.670;2022-08-19T13:50:52;8.15;;;7.45;;
19260;SDS011;9764;48.114;11.670;2022-08-19T13:53:21;8.60;;;7.75;;
19260;SDS011;9764;48.114;11.670;2022-08-19T13:55:50;8.60;;;7.80;;
19260;SDS011;9764;48.114;11.670;2022-08-19T13:58:20;8.15;;;7.40;;
19260;SDS011;9764;48.114;11.670;2022-08-19T14:00:51;8.32;;;7.53;;
19260;SDS011;9764;48.114;11.670;2022-08-19T14:03:19;8.65;;;7.85;;
19260;SDS011;9764;48.114;11.670;2022-08-19T14:05:48;8.40;;;7.55;;
19260;SDS011;9764;48.114;11.670;2022-08-19T14:08:17;7.70;;;6.95;;
19260;SDS011;9764;48.114;11.670;2022-08-19T14:10:46;9.18;;;8.15;;
19260;SDS011;9764;48.114;11.670;2022-08-19T14:13:16;8.45;;;7.65;;
19260;SDS011;9764;48.114;11.670;2022-08-19T14:15:45;10.60;;;7.28;;
19260;SDS011;9764;48.114;11.670;2022-08-19T14:18:16;8.38;;;7.57;;
19260;SDS011;9764;48.114;11.670;2022-08-19T14:20:45;8.07;;;7.38;;
19260;SDS011;9764;48.114;11.670;2022-08-19T14:23:13;7.90;;;6.95;;
19260;SDS011;9764;48.114;11.670;2022-08-19T14:25:42;8.45;;;7.65;;
19260;SDS011;9764;48.114;11.670;2022-08-19T14:28:12;8.32;;;7.53;;
19260;SDS011;9764;48.114;11.670;2022-08-19T14:30:42;8.48;;;7.53;;
19260;SDS011;9764;48.114;11.670;2022-08-19T14:33:11;8.10;;;7.30;;
19260;SDS011;9764;48.114;11.670;2022-08-19T14:35:42;8.20;;;6.95;;
19260;SDS011;9764;48.114;11.670;2022-08-19T14:38:14;11.85;;;7.65;;
19260;SDS011;9764;48.114;11.670;2022-08-19T14:40:53;8.45;;;7.20;;
19260;SDS011;9764;48.114;11.670;2022-08-19T14:43:23;10.50;;;7.82;;
19260;SDS011;9764;48.114;11.670;2022-08-19T14:45:51;8.38;;;7.15;;
19260;SDS011;9764;48.114;11.670;2022-08-19T14:48:20;8.77;;;6.47;;
19260;SDS011;9764;48.114;11.670;2022-08-19T14:50:56;9.63;;;7.70;;
19260;SDS011;9764;48.114;11.670;2022-08-19T14:53:24;10.38;;;6.95;;
19260;SDS011;9764;48.114;11.670;2022-08-19T14:55:53;8.10;;;7.20;;
19260;SDS011;9764;48.114;11.670;2022-08-19T14:58:21;8.30;;;7.38;;
19260;SDS011;9764;48.114;11.670;2022-08-19T15:00:56;9.23;;;7.45;;